createdAt,value
2023-05-03T00:00:23.042Z,25.76
2023-05-03T00:01:23.088Z,25.76
2023-05-03T00:02:23.240Z,25.72
2023-05-03T00:03:23.191Z,25.76
2023-05-03T00:04:23.206Z,25.74
2023-05-03T00:05:23.355Z,25.73
2023-05-03T00:06:23.446Z,25.73
2023-05-03T00:07:23.342Z,25.74
2023-05-03T00:08:23.394Z,25.74
2023-05-03T00:09:23.447Z,25.76
2023-05-03T00:10:23.488Z,25.77
2023-05-03T00:11:23.533Z,25.74
2023-05-03T00:12:23.565Z,25.77
2023-05-03T00:13:23.594Z,25.77
2023-05-03T00:14:23.643Z,25.74
2023-05-03T00:15:23.698Z,25.76
2023-05-03T00:16:23.829Z,25.76
2023-05-03T00:17:23.905Z,25.79
2023-05-03T00:18:23.811Z,25.79
2023-05-03T00:19:30.946Z,25.74
2023-05-03T00:20:24.872Z,25.76
2023-05-03T00:21:23.837Z,25.76
2023-05-03T00:22:23.855Z,25.74
2023-05-03T00:23:23.836Z,25.79
2023-05-03T00:24:23.815Z,25.76
2023-05-03T00:25:23.869Z,25.77
2023-05-03T00:26:23.821Z,25.76
2023-05-03T00:27:23.798Z,25.76
2023-05-03T00:28:23.790Z,25.74
2023-05-03T00:29:23.776Z,25.76
2023-05-03T00:30:23.828Z,25.76
2023-05-03T00:31:23.841Z,25.74
2023-05-03T00:32:23.838Z,25.77
2023-05-03T00:33:23.785Z,25.76
2023-05-03T00:34:23.809Z,25.77
2023-05-03T00:35:23.917Z,25.76
2023-05-03T00:36:23.892Z,25.76
2023-05-03T00:37:23.962Z,25.74
2023-05-03T00:38:23.992Z,25.77
2023-05-03T00:39:24.019Z,25.74
2023-05-03T00:40:24.132Z,25.76
2023-05-03T00:41:24.096Z,25.76
2023-05-03T00:42:24.160Z,25.76
2023-05-03T00:43:24.207Z,25.73
2023-05-03T00:44:24.262Z,25.74
2023-05-03T00:45:24.335Z,25.74
2023-05-03T00:46:24.380Z,25.74
2023-05-03T00:47:24.472Z,25.74
2023-05-03T00:48:24.447Z,25.74
2023-05-03T00:49:24.516Z,25.74
2023-05-03T00:50:24.571Z,25.74
2023-05-03T00:51:24.588Z,25.74
2023-05-03T00:52:24.628Z,25.73
2023-05-03T00:53:24.692Z,25.72
2023-05-03T00:54:24.759Z,25.72
2023-05-03T00:55:24.763Z,25.70
2023-05-03T00:56:24.833Z,25.74
2023-05-03T00:57:24.867Z,25.74
2023-05-03T00:58:24.948Z,25.72
2023-05-03T00:59:25.008Z,25.73
2023-05-03T01:00:25.009Z,25.74
2023-05-03T01:01:25.098Z,25.73
2023-05-03T01:02:25.314Z,25.74
2023-05-03T01:03:25.307Z,25.74
2023-05-03T01:04:25.190Z,25.76
2023-05-03T01:05:25.261Z,25.74
2023-05-03T01:06:25.320Z,25.73
2023-05-03T01:07:25.382Z,25.73
2023-05-03T01:08:25.366Z,25.74
2023-05-03T01:09:25.396Z,25.73
2023-05-03T01:10:25.465Z,25.74
2023-05-03T01:11:25.545Z,25.74
2023-05-03T01:12:25.540Z,25.74
2023-05-03T01:13:25.572Z,25.73
2023-05-03T01:14:25.638Z,25.76
2023-05-03T01:15:25.734Z,25.74
2023-05-03T01:16:25.746Z,25.74
2023-05-03T01:17:25.918Z,25.73
2023-05-03T01:18:25.822Z,25.74
2023-05-03T01:19:25.886Z,25.74
2023-05-03T01:20:25.898Z,25.76
2023-05-03T01:21:25.962Z,25.76
2023-05-03T01:22:26.039Z,25.72
2023-05-03T01:23:26.066Z,25.73
2023-05-03T01:24:26.136Z,25.73
2023-05-03T01:25:26.213Z,25.74
2023-05-03T01:26:26.309Z,25.73
2023-05-03T01:27:26.293Z,25.72
2023-05-03T01:28:26.356Z,25.72
2023-05-03T01:29:26.385Z,25.73
2023-05-03T01:30:26.432Z,25.73
2023-05-03T01:31:26.570Z,25.72
2023-05-03T01:32:26.549Z,25.70
2023-05-03T01:33:26.621Z,25.74
2023-05-03T01:34:26.664Z,25.73
2023-05-03T01:35:26.703Z,25.73
2023-05-03T01:36:26.787Z,25.73
2023-05-03T01:37:26.836Z,25.72
2023-05-03T01:38:26.904Z,25.72
2023-05-03T01:39:26.957Z,25.70
2023-05-03T01:40:26.994Z,25.69
2023-05-03T01:41:27.054Z,25.70
2023-05-03T01:42:27.114Z,25.72
2023-05-03T01:43:27.164Z,25.72
2023-05-03T01:44:27.203Z,25.72
2023-05-03T01:45:27.291Z,25.70
2023-05-03T01:46:27.393Z,25.70
2023-05-03T01:47:27.424Z,25.73
2023-05-03T01:48:27.448Z,25.72
2023-05-03T01:49:27.479Z,25.70
2023-05-03T01:50:27.545Z,25.70
2023-05-03T01:51:27.629Z,25.72
2023-05-03T01:52:27.653Z,25.70
2023-05-03T01:53:27.689Z,25.70
2023-05-03T01:54:27.765Z,25.70
2023-05-03T01:55:28.672Z,25.72
2023-05-03T01:56:27.866Z,25.70
2023-05-03T01:57:27.929Z,25.73
2023-05-03T01:58:28.009Z,25.72
2023-05-03T01:59:28.042Z,25.73
2023-05-03T02:00:28.136Z,25.72
2023-05-03T02:01:28.184Z,25.70
2023-05-03T02:02:28.235Z,25.72
2023-05-03T02:03:28.251Z,25.72
2023-05-03T02:04:28.323Z,25.69
2023-05-03T02:05:28.394Z,25.70
2023-05-03T02:06:28.524Z,25.72
2023-05-03T02:07:28.464Z,25.70
2023-05-03T02:08:28.574Z,25.73
2023-05-03T02:09:28.586Z,25.69
2023-05-03T02:10:28.642Z,25.70
2023-05-03T02:11:28.713Z,25.69
2023-05-03T02:12:28.736Z,25.70
2023-05-03T02:13:28.805Z,25.69
2023-05-03T02:14:28.822Z,25.70
2023-05-03T02:15:28.883Z,25.70
2023-05-03T02:16:29.280Z,25.70
2023-05-03T02:17:29.039Z,25.70
2023-05-03T02:18:28.998Z,25.70
2023-05-03T02:19:29.062Z,25.72
2023-05-03T02:20:29.134Z,25.66
2023-05-03T02:21:29.203Z,25.69
2023-05-03T02:22:29.269Z,25.72
2023-05-03T02:23:29.286Z,25.69
2023-05-03T02:24:29.368Z,25.70
2023-05-03T02:25:29.377Z,25.69
2023-05-03T02:26:29.446Z,25.69
2023-05-03T02:27:29.517Z,25.69
2023-05-03T02:28:29.519Z,25.67
2023-05-03T02:29:29.589Z,25.69
2023-05-03T02:30:29.626Z,25.69
2023-05-03T02:31:29.758Z,25.67
2023-05-03T02:32:29.776Z,25.70
2023-05-03T02:33:29.774Z,25.70
2023-05-03T02:34:29.847Z,25.72
2023-05-03T02:35:29.909Z,25.70
2023-05-03T02:36:29.940Z,25.70
2023-05-03T02:37:30.006Z,25.70
2023-05-03T02:38:30.055Z,25.70
2023-05-03T02:39:30.088Z,25.69
2023-05-03T02:40:30.152Z,25.70
2023-05-03T02:41:30.225Z,25.70
2023-05-03T02:42:30.257Z,25.70
2023-05-03T02:43:30.325Z,25.70
2023-05-03T02:44:31.927Z,25.67
2023-05-03T02:45:30.361Z,25.69
2023-05-03T02:46:30.396Z,25.69
2023-05-03T02:47:30.370Z,25.72
2023-05-03T02:48:30.373Z,25.67
2023-05-03T02:49:30.336Z,25.69
2023-05-03T02:50:30.343Z,25.67
2023-05-03T02:51:30.309Z,25.69
2023-05-03T02:52:30.340Z,25.69
2023-05-03T02:53:30.302Z,25.69
2023-05-03T02:54:30.289Z,25.70
2023-05-03T02:55:30.300Z,25.67
2023-05-03T02:56:30.321Z,25.69
2023-05-03T02:57:30.279Z,25.69
2023-05-03T02:58:30.304Z,25.66
2023-05-03T02:59:30.274Z,25.69
2023-05-03T03:00:30.266Z,25.66
2023-05-03T03:01:30.302Z,25.67
2023-05-03T03:02:30.341Z,25.67
2023-05-03T03:03:30.352Z,25.70
2023-05-03T03:04:30.263Z,25.66
2023-05-03T03:05:30.235Z,25.67
2023-05-03T03:06:30.307Z,25.69
2023-05-03T03:07:30.226Z,25.69
2023-05-03T03:08:30.240Z,25.70
2023-05-03T03:09:30.195Z,25.66
2023-05-03T03:10:30.221Z,25.69
2023-05-03T03:11:30.186Z,25.66
2023-05-03T03:12:30.209Z,25.67
2023-05-03T03:13:30.176Z,25.69
2023-05-03T03:14:30.191Z,25.69
2023-05-03T03:15:30.154Z,25.66
2023-05-03T03:16:30.253Z,25.69
2023-05-03T03:17:30.186Z,25.69
2023-05-03T03:18:30.143Z,25.69
2023-05-03T03:19:30.131Z,25.67
2023-05-03T03:20:30.163Z,25.69
2023-05-03T03:21:30.119Z,25.69
2023-05-03T03:22:30.132Z,25.66
2023-05-03T03:23:30.201Z,25.69
2023-05-03T03:24:30.274Z,25.70
2023-05-03T03:25:30.290Z,25.72
2023-05-03T03:26:30.361Z,25.67
2023-05-03T03:27:30.428Z,25.72
2023-05-03T03:28:30.469Z,25.69
2023-05-03T03:29:30.542Z,25.69
2023-05-03T03:30:30.586Z,25.69
2023-05-03T03:31:30.706Z,25.67
2023-05-03T03:32:30.688Z,25.67
2023-05-03T03:33:30.749Z,25.66
2023-05-03T03:34:30.819Z,25.69
2023-05-03T03:35:30.832Z,25.67
2023-05-03T03:36:30.902Z,25.66
2023-05-03T03:37:30.932Z,25.67
2023-05-03T03:38:31.097Z,25.69
2023-05-03T03:39:31.012Z,25.67
2023-05-03T03:40:31.083Z,25.69
2023-05-03T03:41:31.110Z,25.67
2023-05-03T03:42:31.189Z,25.67
2023-05-03T03:43:31.257Z,25.70
2023-05-03T03:44:31.260Z,25.67
2023-05-03T03:45:31.285Z,25.69
2023-05-03T03:46:31.399Z,25.69
2023-05-03T03:47:31.417Z,25.72
2023-05-03T03:48:31.434Z,25.69
2023-05-03T03:49:31.460Z,25.67
2023-05-03T03:50:31.530Z,25.70
2023-05-03T03:51:31.615Z,25.70
2023-05-03T03:52:31.662Z,25.69
2023-05-03T03:53:31.680Z,25.69
2023-05-03T03:54:31.715Z,25.69
2023-05-03T03:55:31.779Z,25.69
2023-05-03T03:56:31.798Z,25.67
2023-05-03T03:57:31.849Z,25.64
2023-05-03T03:58:31.873Z,25.67
2023-05-03T03:59:31.957Z,25.66
2023-05-03T04:00:31.979Z,25.67
2023-05-03T04:01:32.040Z,25.67
2023-05-03T04:02:32.234Z,25.64
2023-05-03T04:03:32.196Z,25.67
2023-05-03T04:04:32.247Z,25.66
2023-05-03T04:05:32.260Z,25.66
2023-05-03T04:06:32.347Z,25.67
2023-05-03T04:07:32.309Z,25.67
2023-05-03T04:08:32.376Z,25.67
2023-05-03T04:09:32.453Z,25.67
2023-05-03T04:10:32.457Z,25.62
2023-05-03T04:11:32.515Z,25.63
2023-05-03T04:12:32.564Z,25.63
2023-05-03T04:13:32.672Z,25.64
2023-05-03T04:14:32.694Z,25.64
2023-05-03T04:15:32.755Z,25.64
2023-05-03T04:16:32.866Z,25.67
2023-05-03T04:17:32.851Z,25.66
2023-05-03T04:18:32.922Z,25.67
2023-05-03T04:19:32.943Z,25.66
2023-05-03T04:20:33.010Z,25.66
2023-05-03T04:21:33.070Z,25.64
2023-05-03T04:22:33.254Z,25.66
2023-05-03T04:23:33.183Z,25.64
2023-05-03T04:24:33.218Z,25.66
2023-05-03T04:25:33.269Z,25.64
2023-05-03T04:26:33.369Z,25.64
2023-05-03T04:27:33.397Z,25.66
2023-05-03T04:28:33.466Z,25.63
2023-05-03T04:29:33.474Z,25.64
2023-05-03T04:30:33.599Z,25.63
2023-05-03T04:31:33.600Z,25.63
2023-05-03T04:32:33.692Z,25.62
2023-05-03T04:33:33.710Z,25.62
2023-05-03T04:34:33.770Z,25.63
2023-05-03T04:35:33.844Z,25.66
2023-05-03T04:36:33.859Z,25.63
2023-05-03T04:37:33.936Z,25.63
2023-05-03T04:38:34.006Z,25.66
2023-05-03T04:39:34.037Z,25.66
2023-05-03T04:40:34.102Z,25.63
2023-05-03T04:41:34.172Z,25.66
2023-05-03T04:42:34.203Z,25.64
2023-05-03T04:43:34.254Z,25.67
2023-05-03T04:44:34.306Z,25.62
2023-05-03T04:45:34.349Z,25.60
2023-05-03T04:46:34.471Z,25.63
2023-05-03T04:47:34.530Z,25.59
2023-05-03T04:48:34.565Z,25.59
2023-05-03T04:49:34.691Z,25.59
2023-05-03T04:50:34.662Z,25.57
2023-05-03T04:51:34.727Z,25.57
2023-05-03T04:52:34.780Z,25.59
2023-05-03T04:53:34.872Z,25.56
2023-05-03T04:54:34.878Z,25.59
2023-05-03T04:55:34.935Z,25.56
2023-05-03T04:56:35.003Z,25.57
2023-05-03T04:57:35.309Z,25.57
2023-05-03T04:58:35.109Z,25.57
2023-05-03T04:59:35.166Z,25.56
2023-05-03T05:00:35.231Z,25.54
2023-05-03T05:01:35.323Z,25.59
2023-05-03T05:02:35.389Z,25.60
2023-05-03T05:03:35.496Z,25.63
2023-05-03T05:04:35.477Z,25.62
2023-05-03T05:05:35.490Z,25.62
2023-05-03T05:06:35.571Z,25.63
2023-05-03T05:07:35.628Z,25.62
2023-05-03T05:08:35.689Z,25.63
2023-05-03T05:09:35.760Z,25.60
2023-05-03T05:10:35.787Z,25.62
2023-05-03T05:11:35.854Z,25.60
2023-05-03T05:12:35.930Z,25.60
2023-05-03T05:13:35.996Z,25.60
2023-05-03T05:14:36.009Z,25.59
2023-05-03T05:15:36.139Z,25.59
2023-05-03T05:16:36.211Z,25.60
2023-05-03T05:17:36.304Z,25.60
2023-05-03T05:18:36.296Z,25.62
2023-05-03T05:19:36.316Z,25.59
2023-05-03T05:20:36.385Z,25.59
2023-05-03T05:21:36.444Z,25.59
2023-05-03T05:22:36.451Z,25.60
2023-05-03T05:23:36.553Z,25.60
2023-05-03T05:24:36.565Z,25.64
2023-05-03T05:25:36.726Z,25.64
2023-05-03T05:26:36.689Z,25.64
2023-05-03T05:27:36.832Z,25.64
2023-05-03T05:28:36.781Z,25.66
2023-05-03T05:29:36.854Z,25.63
2023-05-03T05:30:36.910Z,25.63
2023-05-03T05:31:37.036Z,25.63
2023-05-03T05:32:37.095Z,25.59
2023-05-03T05:33:37.152Z,25.53
2023-05-03T05:34:45.198Z,25.50
2023-05-03T05:35:38.189Z,25.46
2023-05-03T05:36:37.086Z,25.44
2023-05-03T05:37:37.089Z,25.47
2023-05-03T05:38:37.076Z,25.44
2023-05-03T05:39:37.090Z,25.46
2023-05-03T05:40:37.057Z,25.49
2023-05-03T05:41:37.076Z,25.53
2023-05-03T05:42:37.070Z,25.50
2023-05-03T05:43:37.062Z,25.56
2023-05-03T05:44:37.063Z,25.53
2023-05-03T05:45:37.101Z,25.54
2023-05-03T05:46:37.291Z,25.57
2023-05-03T05:47:37.312Z,25.57
2023-05-03T05:48:37.233Z,25.57
2023-05-03T05:49:38.249Z,25.57
2023-05-03T05:50:37.349Z,25.57
2023-05-03T05:51:37.418Z,25.59
2023-05-03T05:52:37.487Z,25.59
2023-05-03T05:53:37.498Z,25.60
2023-05-03T05:54:37.558Z,25.60
2023-05-03T05:55:37.647Z,25.60
2023-05-03T05:56:37.702Z,25.62
2023-05-03T05:57:37.789Z,25.64
2023-05-03T05:58:37.810Z,25.66
2023-05-03T05:59:37.873Z,25.66
2023-05-03T06:00:37.894Z,25.67
2023-05-03T06:01:37.958Z,25.67
2023-05-03T06:02:38.161Z,25.69
2023-05-03T06:03:38.099Z,25.69
2023-05-03T06:04:38.886Z,25.72
2023-05-03T06:05:38.378Z,25.69
2023-05-03T06:06:38.289Z,25.67
2023-05-03T06:07:38.265Z,25.69
2023-05-03T06:08:38.305Z,25.70
2023-05-03T06:09:38.374Z,25.69
2023-05-03T06:10:38.391Z,25.69
2023-05-03T06:11:38.502Z,25.70
2023-05-03T06:12:38.839Z,25.72
2023-05-03T06:13:38.733Z,25.73
2023-05-03T06:14:40.665Z,25.72
2023-05-03T06:15:39.621Z,25.73
2023-05-03T06:16:38.661Z,25.74
2023-05-03T06:17:38.620Z,25.74
2023-05-03T06:18:38.636Z,25.76
2023-05-03T06:19:38.644Z,25.77
2023-05-03T06:20:38.656Z,25.77
2023-05-03T06:21:38.561Z,25.79
2023-05-03T06:22:38.549Z,25.83
2023-05-03T06:23:38.847Z,25.79
2023-05-03T06:24:38.577Z,25.79
2023-05-03T06:25:38.540Z,25.79
2023-05-03T06:26:38.473Z,25.77
2023-05-03T06:27:38.504Z,25.76
2023-05-03T06:28:38.514Z,25.74
2023-05-03T06:29:38.645Z,25.74
2023-05-03T06:30:38.709Z,25.76
2023-05-03T06:31:38.793Z,25.73
2023-05-03T06:32:38.856Z,25.72
2023-05-03T06:33:38.824Z,25.66
2023-05-03T06:34:38.950Z,25.69
2023-05-03T06:35:38.899Z,25.62
2023-05-03T06:36:38.978Z,25.64
2023-05-03T06:37:39.146Z,25.57
2023-05-03T06:38:39.097Z,25.40
2023-05-03T06:39:39.150Z,25.40
2023-05-03T06:40:39.241Z,25.29
2023-05-03T06:41:39.262Z,25.37
2023-05-03T06:42:39.350Z,25.42
2023-05-03T06:43:39.413Z,25.47
2023-05-03T06:44:39.419Z,25.44
2023-05-03T06:45:39.500Z,25.46
2023-05-03T06:46:39.697Z,25.47
2023-05-03T06:47:39.680Z,25.52
2023-05-03T06:48:39.695Z,25.53
2023-05-03T06:49:39.716Z,25.54
2023-05-03T06:50:39.814Z,25.53
2023-05-03T06:51:39.803Z,25.56
2023-05-03T06:52:40.296Z,25.53
2023-05-03T06:53:39.998Z,25.56
2023-05-03T06:54:39.938Z,25.56
2023-05-03T06:55:40.061Z,25.57
2023-05-03T06:56:40.080Z,25.57
2023-05-03T06:57:40.093Z,25.57
2023-05-03T06:58:40.182Z,25.56
2023-05-03T06:59:40.331Z,25.56
2023-05-03T07:00:40.295Z,25.56
2023-05-03T07:01:40.342Z,25.59
2023-05-03T07:02:40.429Z,25.60
2023-05-03T07:03:41.913Z,25.60
2023-05-03T07:04:40.411Z,25.63
2023-05-03T07:05:40.441Z,25.67
2023-05-03T07:06:54.842Z,25.67
2023-05-03T07:07:41.499Z,25.64
2023-05-03T07:08:40.486Z,25.69
2023-05-03T07:09:43.716Z,25.69
2023-05-03T07:10:40.482Z,25.69
2023-05-03T07:11:40.455Z,25.67
2023-05-03T07:12:40.452Z,25.67
2023-05-03T07:13:40.498Z,25.67
2023-05-03T07:14:40.527Z,25.69
2023-05-03T07:15:40.449Z,25.67
2023-05-03T07:16:40.541Z,25.66
2023-05-03T07:17:40.527Z,25.69
2023-05-03T07:18:40.479Z,25.69
2023-05-03T07:19:40.402Z,25.73
2023-05-03T07:20:40.399Z,25.72
2023-05-03T07:21:40.437Z,25.74
2023-05-03T07:22:40.396Z,25.72
2023-05-03T07:23:40.378Z,25.72
2023-05-03T07:24:40.392Z,25.73
2023-05-03T07:25:40.404Z,25.72
2023-05-03T07:26:41.082Z,25.72
2023-05-03T07:27:40.920Z,25.69
2023-05-03T07:28:40.430Z,25.70
2023-05-03T07:29:40.380Z,25.72
2023-05-03T07:30:40.399Z,25.66
2023-05-03T07:31:40.340Z,25.62
2023-05-03T07:32:40.532Z,25.53
2023-05-03T07:33:43.470Z,25.49
2023-05-03T07:34:40.316Z,25.43
2023-05-03T07:35:40.304Z,25.52
2023-05-03T07:36:40.367Z,25.54
2023-05-03T07:37:41.817Z,25.56
2023-05-03T07:38:40.390Z,25.54
2023-05-03T07:39:40.364Z,25.57
2023-05-03T07:40:40.297Z,25.56
2023-05-03T07:41:40.302Z,25.60
2023-05-03T07:42:40.269Z,25.60
2023-05-03T07:43:40.281Z,25.62
2023-05-03T07:44:40.233Z,25.59
2023-05-03T07:45:40.304Z,25.63
2023-05-03T07:46:40.248Z,25.64
2023-05-03T07:47:40.409Z,25.69
2023-05-03T07:48:40.205Z,25.66
2023-05-03T07:49:40.263Z,25.66
2023-05-03T07:50:40.223Z,25.69
2023-05-03T07:51:40.178Z,25.70
2023-05-03T07:52:40.208Z,25.70
2023-05-03T07:53:40.229Z,25.70
2023-05-03T07:54:40.220Z,25.66
2023-05-03T07:55:40.181Z,25.64
2023-05-03T07:56:40.142Z,25.64
2023-05-03T07:57:40.200Z,25.64
2023-05-03T07:58:41.602Z,25.64
2023-05-03T07:59:40.274Z,25.63
2023-05-03T08:00:40.322Z,25.59
2023-05-03T08:01:40.259Z,25.60
2023-05-03T08:02:40.445Z,25.62
2023-05-03T08:03:40.610Z,25.57
2023-05-03T08:04:40.471Z,25.63
2023-05-03T08:05:40.466Z,25.64
2023-05-03T08:06:40.479Z,25.66
2023-05-03T08:07:41.477Z,25.67
2023-05-03T08:08:40.585Z,25.69
2023-05-03T08:09:40.545Z,25.70
2023-05-03T08:10:40.565Z,25.70
2023-05-03T08:11:43.196Z,25.74
2023-05-03T08:12:40.621Z,25.73
2023-05-03T08:13:40.632Z,25.76
2023-05-03T08:14:40.604Z,25.76
2023-05-03T08:15:40.635Z,25.74
2023-05-03T08:16:40.595Z,25.77
2023-05-03T08:17:40.620Z,25.74
2023-05-03T08:18:42.377Z,25.77
2023-05-03T08:19:40.601Z,25.77
2023-05-03T08:20:40.564Z,25.77
2023-05-03T08:21:40.599Z,25.76
2023-05-03T08:22:40.851Z,25.76
2023-05-03T08:23:40.562Z,25.73
2023-05-03T08:24:40.521Z,25.70
2023-05-03T08:25:40.662Z,25.64
2023-05-03T08:26:40.517Z,25.69
2023-05-03T08:27:40.538Z,25.66
2023-05-03T08:28:40.514Z,25.73
2023-05-03T08:29:40.512Z,25.77
2023-05-03T08:30:40.535Z,25.79
2023-05-03T08:31:41.460Z,25.83
2023-05-03T08:32:40.507Z,25.84
2023-05-03T08:33:40.533Z,25.84
2023-05-03T08:34:40.467Z,25.87
2023-05-03T08:35:40.475Z,25.86
2023-05-03T08:36:40.452Z,25.86
2023-05-03T08:37:40.463Z,25.87
2023-05-03T08:38:40.553Z,25.87
2023-05-03T08:39:40.581Z,25.83
2023-05-03T08:40:40.569Z,25.80
2023-05-03T08:41:40.646Z,25.74
2023-05-03T08:42:40.708Z,25.79
2023-05-03T08:43:41.370Z,25.76
2023-05-03T08:44:40.734Z,25.77
2023-05-03T08:45:40.977Z,25.79
2023-05-03T08:46:40.853Z,25.74
2023-05-03T08:47:40.871Z,25.70
2023-05-03T08:48:40.836Z,25.72
2023-05-03T08:49:43.009Z,25.72
2023-05-03T08:50:40.853Z,25.63
2023-05-03T08:51:40.888Z,25.69
2023-05-03T08:52:41.371Z,25.73
2023-05-03T08:53:40.940Z,25.74
2023-05-03T08:54:40.925Z,25.79
2023-05-03T08:55:40.946Z,25.83
2023-05-03T08:56:41.196Z,25.83
2023-05-03T08:57:41.459Z,25.87
2023-05-03T08:58:40.987Z,25.90
2023-05-03T08:59:41.192Z,25.90
2023-05-03T09:00:41.186Z,25.90
2023-05-03T09:01:41.328Z,25.90
2023-05-03T09:02:41.188Z,25.93
2023-05-03T09:03:41.389Z,25.93
2023-05-03T09:04:41.343Z,25.94
2023-05-03T09:05:41.349Z,25.93
2023-05-03T09:06:41.258Z,25.94
2023-05-03T09:07:41.385Z,25.94
2023-05-03T09:08:41.847Z,25.94
2023-05-03T09:09:41.293Z,25.96
2023-05-03T09:10:41.306Z,25.98
2023-05-03T09:11:41.315Z,25.97
2023-05-03T09:12:41.499Z,25.97
2023-05-03T09:13:41.348Z,25.97
2023-05-03T09:14:41.369Z,25.98
2023-05-03T09:15:41.446Z,25.98
2023-05-03T09:16:41.452Z,25.98
2023-05-03T09:17:41.461Z,26.00
2023-05-03T09:18:41.420Z,26.00
2023-05-03T09:19:41.460Z,25.97
2023-05-03T09:20:41.475Z,25.97
2023-05-03T09:21:41.481Z,26.00
2023-05-03T09:22:41.520Z,26.00
2023-05-03T09:23:41.518Z,25.97
2023-05-03T09:24:41.554Z,26.00
2023-05-03T09:25:41.567Z,25.96
2023-05-03T09:26:41.623Z,25.96
2023-05-03T09:27:41.613Z,25.97
2023-05-03T09:28:41.629Z,25.97
2023-05-03T09:29:41.672Z,25.97
2023-05-03T09:30:41.675Z,25.96
2023-05-03T09:31:42.417Z,25.94
2023-05-03T09:32:41.730Z,25.90
2023-05-03T09:33:41.717Z,25.90
2023-05-03T09:34:41.723Z,25.87
2023-05-03T09:35:41.742Z,25.93
2023-05-03T09:36:42.912Z,25.93
2023-05-03T09:37:41.871Z,25.90
2023-05-03T09:38:41.733Z,25.88
2023-05-03T09:39:41.719Z,25.87
2023-05-03T09:40:41.742Z,25.88
2023-05-03T09:41:41.768Z,25.91
2023-05-03T09:42:41.940Z,25.90
2023-05-03T09:43:41.755Z,25.90
2023-05-03T09:44:41.742Z,25.87
2023-05-03T09:45:41.714Z,25.84
2023-05-03T09:46:41.694Z,25.84
2023-05-03T09:47:41.943Z,25.84
2023-05-03T09:48:41.673Z,25.86
2023-05-03T09:49:41.898Z,25.86
2023-05-03T09:50:41.646Z,25.84
2023-05-03T09:51:41.680Z,25.84
2023-05-03T09:52:41.696Z,25.84
2023-05-03T09:53:41.612Z,25.83
2023-05-03T09:54:41.649Z,25.81
2023-05-03T09:55:41.608Z,25.81
2023-05-03T09:56:41.589Z,25.80
2023-05-03T09:57:41.957Z,25.81
2023-05-03T09:58:41.596Z,25.81
2023-05-03T09:59:41.573Z,25.77
2023-05-03T10:00:41.655Z,25.81
2023-05-03T10:01:41.597Z,25.77
2023-05-03T10:02:41.597Z,25.74
2023-05-03T10:03:41.649Z,25.76
2023-05-03T10:04:41.561Z,25.79
2023-05-03T10:05:41.542Z,25.79
2023-05-03T10:06:41.601Z,25.77
2023-05-03T10:07:41.584Z,25.77
2023-05-03T10:08:41.541Z,25.77
2023-05-03T10:09:41.958Z,25.77
2023-05-03T10:10:41.509Z,25.79
2023-05-03T10:11:41.525Z,25.81
2023-05-03T10:12:41.513Z,25.79
2023-05-03T10:13:41.481Z,25.80
2023-05-03T10:14:41.492Z,25.81
2023-05-03T10:15:41.533Z,25.83
2023-05-03T10:16:41.465Z,25.81
2023-05-03T10:18:41.515Z,25.81
2023-05-03T10:19:41.489Z,25.80
2023-05-03T10:20:41.437Z,25.81
2023-05-03T10:21:41.528Z,25.80
2023-05-03T10:22:41.434Z,25.79
2023-05-03T10:23:41.463Z,25.79
2023-05-03T10:24:41.429Z,25.80
2023-05-03T10:25:41.432Z,25.69
2023-05-03T10:26:41.466Z,25.73
2023-05-03T10:27:41.434Z,25.76
2023-05-03T10:28:41.397Z,25.74
2023-05-03T10:29:41.407Z,25.76
2023-05-03T10:30:41.406Z,25.76
2023-05-03T10:31:41.437Z,25.81
2023-05-03T10:32:41.388Z,25.80
2023-05-03T10:33:41.411Z,25.79
2023-05-03T10:34:41.362Z,25.84
2023-05-03T10:35:41.431Z,25.84
2023-05-03T10:36:49.334Z,25.87
2023-05-03T10:37:42.342Z,25.88
2023-05-03T10:38:41.313Z,25.88
2023-05-03T10:39:41.346Z,25.93
2023-05-03T10:40:41.324Z,25.96
2023-05-03T10:41:41.337Z,25.97
2023-05-03T10:42:41.307Z,25.98
2023-05-03T10:43:41.319Z,25.98
2023-05-03T10:44:41.407Z,25.98
2023-05-03T10:45:41.301Z,26.00
2023-05-03T10:46:41.404Z,25.98
2023-05-03T10:47:41.333Z,26.00
2023-05-03T10:48:41.306Z,25.98
2023-05-03T10:49:41.269Z,26.00
2023-05-03T10:50:41.259Z,26.01
2023-05-03T10:51:41.261Z,26.00
2023-05-03T10:52:41.230Z,26.00
2023-05-03T10:53:41.363Z,25.98
2023-05-03T10:54:41.207Z,25.97
2023-05-03T10:55:41.234Z,25.98
2023-05-03T10:56:41.216Z,25.98
2023-05-03T10:57:41.206Z,25.98
2023-05-03T10:58:41.241Z,25.98
2023-05-03T10:59:41.313Z,25.98
2023-05-03T11:00:41.324Z,25.96
2023-05-03T11:01:41.404Z,25.96
2023-05-03T11:02:41.442Z,25.98
2023-05-03T11:03:41.504Z,25.97
2023-05-03T11:04:41.552Z,25.97
2023-05-03T11:05:41.519Z,25.96
2023-05-03T11:06:41.641Z,25.98
2023-05-03T11:07:41.555Z,25.97
2023-05-03T11:08:41.876Z,25.98
2023-05-03T11:09:41.590Z,26.01
2023-05-03T11:10:41.666Z,26.01
2023-05-03T11:11:41.627Z,26.01
2023-05-03T11:12:41.636Z,26.01
2023-05-03T11:13:41.722Z,26.05
2023-05-03T11:14:41.683Z,26.00
2023-05-03T11:15:41.712Z,26.01
2023-05-03T11:16:41.845Z,25.91
2023-05-03T11:17:41.788Z,25.93
2023-05-03T11:18:41.748Z,25.98
2023-05-03T11:19:41.755Z,26.05
2023-05-03T11:20:41.792Z,26.03
2023-05-03T11:21:41.810Z,26.03
2023-05-03T11:22:41.787Z,26.07
2023-05-03T11:23:41.997Z,26.10
2023-05-03T11:24:41.863Z,26.03
2023-05-03T11:25:41.940Z,26.08
2023-05-03T11:26:41.973Z,26.07
2023-05-03T11:27:41.986Z,26.10
2023-05-03T11:28:42.403Z,26.13
2023-05-03T11:29:42.417Z,26.07
2023-05-03T11:30:41.944Z,26.05
2023-05-03T11:31:41.995Z,25.94
2023-05-03T11:32:42.000Z,25.77
2023-05-03T11:33:42.046Z,25.62
2023-05-03T11:34:42.113Z,25.52
2023-05-03T11:35:42.129Z,25.44
2023-05-03T11:36:42.138Z,25.32
2023-05-03T11:37:42.121Z,25.23
2023-05-03T11:38:42.394Z,25.15
2023-05-03T11:39:42.909Z,25.10
2023-05-03T11:40:42.894Z,24.99
2023-05-03T11:41:42.313Z,24.99
2023-05-03T11:42:42.255Z,24.99
2023-05-03T11:43:42.428Z,24.96
2023-05-03T11:44:42.337Z,24.86
2023-05-03T11:45:42.436Z,24.83
2023-05-03T11:46:42.499Z,24.82
2023-05-03T11:47:42.451Z,24.72
2023-05-03T11:48:42.538Z,24.75
2023-05-03T11:49:43.394Z,24.78
2023-05-03T11:50:42.513Z,24.78
2023-05-03T11:51:43.420Z,24.82
2023-05-03T11:52:42.583Z,24.83
2023-05-03T11:53:42.618Z,24.85
2023-05-03T11:54:42.621Z,24.75
2023-05-03T11:55:42.657Z,24.79
2023-05-03T11:56:42.734Z,24.76
2023-05-03T11:57:42.780Z,24.79
2023-05-03T11:58:42.764Z,24.83
2023-05-03T11:59:42.784Z,24.83
2023-05-03T12:00:42.857Z,24.88
2023-05-03T12:01:42.879Z,24.92
2023-05-03T12:02:42.930Z,24.95
2023-05-03T12:03:42.958Z,24.98
2023-05-03T12:04:44.070Z,25.02
2023-05-03T12:05:43.195Z,25.09
2023-05-03T12:06:44.759Z,25.12
2023-05-03T12:07:44.203Z,25.19
2023-05-03T12:08:44.885Z,25.22
2023-05-03T12:09:45.177Z,25.28
2023-05-03T12:10:45.138Z,25.30
2023-05-03T12:11:44.369Z,25.34
2023-05-03T12:12:49.335Z,25.37
2023-05-03T12:13:44.631Z,25.40
2023-05-03T12:14:43.379Z,25.42
2023-05-03T12:15:43.842Z,25.43
2023-05-03T12:16:43.349Z,25.46
2023-05-03T12:17:45.284Z,25.47
2023-05-03T12:18:43.333Z,25.54
2023-05-03T12:19:44.180Z,25.54
2023-05-03T12:21:29.403Z,25.59
2023-05-03T12:21:50.600Z,25.59
2023-05-03T12:22:45.277Z,25.62
2023-05-03T12:23:45.571Z,25.59
2023-05-03T12:24:45.037Z,25.60
2023-05-03T12:25:44.803Z,25.62
2023-05-03T12:26:43.587Z,25.63
2023-05-03T12:27:45.397Z,25.66
2023-05-03T12:28:43.804Z,25.64
2023-05-03T12:29:46.156Z,25.67
2023-05-03T12:30:46.014Z,25.66
2023-05-03T12:31:44.279Z,25.66
2023-05-03T12:32:44.502Z,25.66
2023-05-03T12:33:43.897Z,25.63
2023-05-03T12:34:46.066Z,25.64
2023-05-03T12:35:46.926Z,25.66
2023-05-03T12:36:44.084Z,25.64
2023-05-03T12:37:44.099Z,25.67
2023-05-03T12:38:43.942Z,25.67
2023-05-03T12:39:46.136Z,25.66
2023-05-03T12:40:43.782Z,25.67
2023-05-03T12:42:06.289Z,25.67
2023-05-03T12:42:44.904Z,25.67
2023-05-03T12:43:43.915Z,25.69
2023-05-03T12:44:43.734Z,25.70
2023-05-03T12:45:46.703Z,25.66
2023-05-03T12:46:45.437Z,25.63
2023-05-03T12:47:44.558Z,25.60
2023-05-03T12:48:46.529Z,25.62
2023-05-03T12:49:46.027Z,25.56
2023-05-03T12:50:45.531Z,25.56
2023-05-03T12:51:43.752Z,25.59
2023-05-03T12:53:46.863Z,25.59
2023-05-03T12:54:47.034Z,25.60